Time;durP1;ratioP1;P1;durP2;ratioP2;P2;SDS_P1;SDS_P2;PMS_P1;PMS_P2;Temp;Humidity;BMP_temperature;BMP_pressure;BME280_temperature;BME280_humidity;BME280_pressure;Samples;Min_cycle;Max_cycle;Signal;HPM_P1;HPM_P2
2022/01/29 00:01:33;;;;;;;7.38;1.38;;;;;;;1.90;62.37;95096.25;5072896;28;20685;-75
2022/01/29 00:04:04;;;;;;;3.15;1.30;;;;;;;1.87;63.39;95096.75;5073535;28;20210;-76
2022/01/29 00:06:31;;;;;;;4.20;2.22;;;;;;;1.82;63.69;95099.41;5073190;28;20199;-75
2022/01/29 00:08:58;;;;;;;2.50;1.67;;;;;;;1.76;63.96;95111.94;5073162;28;20226;-75
2022/01/29 00:11:29;;;;;;;1.75;1.08;;;;;;;1.75;64.39;95114.88;5073727;28;20306;-75
2022/01/29 00:13:56;;;;;;;4.97;2.35;;;;;;;1.85;64.36;95114.91;5074156;28;20658;-77
2022/01/29 00:16:23;;;;;;;2.50;1.45;;;;;;;1.85;64.75;95114.09;5074077;28;20233;-75
2022/01/29 00:18:51;;;;;;;2.00;1.42;;;;;;;1.76;64.53;95116.47;5060546;28;20701;-76
2022/01/29 00:21:18;;;;;;;3.00;1.70;;;;;;;1.73;64.82;95117.00;5074096;28;20674;-77
2022/01/29 00:23:45;;;;;;;4.65;2.55;;;;;;;1.79;64.50;95118.59;5073541;28;20209;-75
2022/01/29 00:26:12;;;;;;;2.42;1.23;;;;;;;1.79;64.59;95121.28;5073807;28;20249;-76
2022/01/29 00:28:39;;;;;;;5.40;2.22;;;;;;;1.72;65.33;95112.72;5073910;28;20235;-76
2022/01/29 00:31:10;;;;;;;12.88;3.97;;;;;;;1.69;65.11;95115.88;5073751;28;20222;-76
2022/01/29 00:33:37;;;;;;;3.10;1.65;;;;;;;1.72;65.22;95120.72;5073825;28;20281;-75
2022/01/29 00:36:06;;;;;;;2.95;1.70;;;;;;;1.66;65.94;95116.41;5073915;28;20207;-76
2022/01/29 00:38:33;;;;;;;6.45;1.80;;;;;;;1.69;65.08;95110.56;5083106;28;20279;-77
2022/01/29 00:41:00;;;;;;;2.03;1.35;;;;;;;1.69;65.37;95115.88;5077796;28;20331;-75
2022/01/29 00:43:27;;;;;;;5.30;2.47;;;;;;;1.70;65.72;95122.84;5074104;28;20211;-76
2022/01/29 00:45:54;;;;;;;7.28;2.08;;;;;;;1.71;65.96;95119.09;5073632;28;20202;-76
2022/01/29 00:48:21;;;;;;;1.55;1.20;;;;;;;1.72;66.11;95123.38;5073818;28;20250;-76
2022/01/29 00:50:48;;;;;;;2.65;1.42;;;;;;;1.70;66.78;95112.16;5074004;28;20203;-76
2022/01/29 00:53:16;;;;;;;5.85;1.90;;;;;;;1.64;66.75;95113.22;5073630;28;20207;-76
2022/01/29 00:55:45;;;;;;;3.38;1.88;;;;;;;1.63;67.37;95106.25;5073890;28;20264;-76
2022/01/29 00:58:12;;;;;;;1.92;1.20;;;;;;;1.58;67.41;95103.56;5084999;28;20203;-76
2022/01/29 01:00:39;;;;;;;2.85;1.40;;;;;;;1.58;67.57;95103.56;5084813;28;20215;-77
2022/01/29 01:03:06;;;;;;;3.40;2.40;;;;;;;1.51;68.14;95114.47;5083066;28;20227;-76
2022/01/29 01:05:33;;;;;;;2.38;1.67;;;;;;;1.54;68.42;95115.81;5078672;28;20670;-75
2022/01/29 01:08:00;;;;;;;5.22;2.15;;;;;;;1.59;68.77;95110.50;5073178;28;20227;-76
2022/01/29 01:10:28;;;;;;;3.05;1.95;;;;;;;1.68;67.84;95128.44;5073472;28;20225;-76
2022/01/29 01:12:55;;;;;;;2.38;1.55;;;;;;;1.68;68.28;95120.44;5073975;28;20203;-75
2022/01/29 01:15:22;;;;;;;6.82;1.92;;;;;;;1.56;68.39;95117.16;5087092;28;20223;-75
2022/01/29 01:17:49;;;;;;;4.03;2.55;;;;;;;1.52;68.83;95107.25;5073171;28;20444;-75
2022/01/29 01:20:16;;;;;;;2.58;1.80;;;;;;;1.50;69.10;95102.19;5073505;28;20229;-75
2022/01/29 01:22:45;;;;;;;4.30;2.35;;;;;;;1.52;68.55;95105.38;5073237;28;20211;-77
2022/01/29 01:25:12;;;;;;;8.98;1.98;;;;;;;1.54;68.53;95113.94;5072568;28;20218;-76
2022/01/29 01:27:40;;;;;;;4.53;2.63;;;;;;;1.49;68.85;95099.78;5072729;28;20195;-76
2022/01/29 01:30:09;;;;;;;2.33;1.75;;;;;;;1.52;68.96;95093.91;5073033;28;20207;-76
2022/01/29 01:32:37;;;;;;;2.90;1.77;;;;;;;1.51;68.54;95094.97;5086139;28;20237;-75
2022/01/29 01:35:11;;;;;;;3.53;2.08;;;;;;;1.49;68.93;95094.44;5093090;28;20590;-77
2022/01/29 01:37:45;;;;;;;4.50;2.30;;;;;;;1.50;68.83;95088.06;5091823;28;20791;-76
2022/01/29 01:40:13;;;;;;;3.08;1.88;;;;;;;1.47;68.96;95091.22;5081192;28;20226;-77
2022/01/29 01:42:42;;;;;;;3.45;1.70;;;;;;;1.42;68.92;95095.47;5076588;28;20295;-75
2022/01/29 01:45:09;;;;;;;2.53;1.55;;;;;;;1.43;69.76;95094.41;5072271;28;20211;-77
2022/01/29 01:47:36;;;;;;;6.22;1.90;;;;;;;1.49;69.41;95097.13;5086582;28;20234;-76
2022/01/29 01:50:04;;;;;;;2.63;1.70;;;;;;;1.51;69.24;95101.09;5072572;28;20230;-75
2022/01/29 01:52:31;;;;;;;3.55;1.95;;;;;;;1.49;69.56;95102.44;5072651;28;20272;-76
2022/01/29 01:54:58;;;;;;;4.72;2.03;;;;;;;1.45;69.91;95109.34;5071921;28;20195;-77
2022/01/29 01:57:25;;;;;;;3.60;1.90;;;;;;;1.44;69.64;95108.56;5071513;28;20223;-76
2022/01/29 01:59:53;;;;;;;4.65;2.20;;;;;;;1.44;70.39;95095.22;5071863;28;20223;-75
2022/01/29 02:02:21;;;;;;;2.17;1.83;;;;;;;1.45;70.34;95098.69;5072101;28;20225;-76
2022/01/29 02:04:49;;;;;;;4.35;1.75;;;;;;;1.41;69.94;95088.53;5070862;28;20230;-76
2022/01/29 02:07:15;;;;;;;3.10;2.00;;;;;;;1.39;70.17;95090.63;5072397;28;20325;-76
2022/01/29 02:09:42;;;;;;;3.70;1.92;;;;;;;1.41;69.94;95109.06;5071734;28;20595;-74
2022/01/29 02:12:11;;;;;;;4.25;2.08;;;;;;;1.43;70.31;95107.75;5072238;28;20199;-77
2022/01/29 02:14:38;;;;;;;3.40;2.00;;;;;;;1.47;70.71;95101.91;5072359;28;20219;-76
2022/01/29 02:17:08;;;;;;;2.40;2.17;;;;;;;1.39;70.41;95103.97;5072160;28;20207;-76
2022/01/29 02:19:35;;;;;;;2.30;1.42;;;;;;;1.40;70.82;95102.94;5071724;28;20246;-75
2022/01/29 02:22:05;;;;;;;3.42;1.23;;;;;;;1.28;70.47;95093.50;5072157;28;20202;-76
2022/01/29 02:24:32;;;;;;;4.38;2.38;;;;;;;1.38;70.60;95115.72;5072137;28;20230;-76
2022/01/29 02:26:59;;;;;;;4.53;2.33;;;;;;;1.33;70.66;95107.69;5071886;28;20202;-76
2022/01/29 02:29:26;;;;;;;2.53;1.55;;;;;;;1.39;71.01;95124.53;5070884;28;20242;-76
2022/01/29 02:31:55;;;;;;;4.07;2.25;;;;;;;1.30;70.92;95116.22;5071618;28;20206;-77
2022/01/29 02:34:22;;;;;;;3.38;2.25;;;;;;;1.35;70.96;95126.94;5071274;28;20688;-76
2022/01/29 02:36:49;;;;;;;3.28;2.20;;;;;;;1.32;71.26;95116.75;5071506;28;20218;-75
2022/01/29 02:39:19;;;;;;;4.30;2.35;;;;;;;1.39;70.57;95116.53;5071221;28;20215;-75
2022/01/29 02:41:46;;;;;;;4.25;2.55;;;;;;;1.39;70.51;95117.31;5071809;28;20309;-75
2022/01/29 02:44:17;;;;;;;2.13;1.92;;;;;;;1.39;70.46;95116.53;5071093;28;20199;-75
2022/01/29 02:46:52;;;;;;;3.72;2.08;;;;;;;1.46;70.88;95116.31;5071473;28;20199;-75
2022/01/29 02:49:22;;;;;;;6.70;3.42;;;;;;;1.41;70.92;95125.88;5070615;28;20635;-75
2022/01/29 02:51:51;;;;;;;2.40;1.85;;;;;;;1.42;70.52;95124.03;5071131;28;20313;-74
2022/01/29 02:54:20;;;;;;;3.92;2.28;;;;;;;1.43;70.50;95123.75;5071075;28;20210;-75
2022/01/29 02:56:47;;;;;;;6.38;2.60;;;;;;;1.38;70.62;95115.72;5071427;28;20226;-75
2022/01/29 02:59:15;;;;;;;3.47;2.08;;;;;;;1.39;71.18;95121.88;5057407;28;20219;-75
2022/01/29 03:01:43;;;;;;;2.92;2.30;;;;;;;1.49;71.19;95121.13;5071174;28;20235;-76
2022/01/29 03:04:10;;;;;;;3.22;2.25;;;;;;;1.32;70.67;95111.44;5071344;28;20203;-78
2022/01/29 03:06:37;;;;;;;3.25;2.10;;;;;;;1.39;70.65;95122.66;5071309;28;20238;-76
2022/01/29 03:09:06;;;;;;;3.05;1.88;;;;;;;1.38;70.07;95121.06;5070729;28;20227;-76
2022/01/29 03:11:35;;;;;;;2.72;2.05;;;;;;;1.35;70.19;95124.25;5070647;28;20697;-77
2022/01/29 03:14:02;;;;;;;3.35;1.98;;;;;;;1.45;69.88;95122.72;5070641;28;20223;-76
2022/01/29 03:16:29;;;;;;;3.42;2.40;;;;;;;1.33;70.08;95122.91;5071146;28;20203;-77
2022/01/29 03:18:56;;;;;;;4.88;2.40;;;;;;;1.39;69.87;95119.19;5070449;28;20276;-77
2022/01/29 03:21:22;;;;;;;4.18;2.20;;;;;;;1.25;70.19;95108.16;5084665;28;20209;-74
2022/01/29 03:23:49;;;;;;;3.90;1.83;;;;;;;1.27;70.21;95114.06;5071247;28;20219;-75
2022/01/29 03:26:16;;;;;;;4.05;1.83;;;;;;;1.23;69.92;95101.50;5070975;28;20566;-75
2022/01/29 03:28:45;;;;;;;2.58;1.70;;;;;;;1.21;70.39;95103.63;5071554;28;20218;-74
2022/01/29 03:31:12;;;;;;;4.40;2.17;;;;;;;1.24;69.13;95098.56;5071010;28;20210;-76
2022/01/29 03:33:39;;;;;;;3.40;2.22;;;;;;;1.25;68.52;95104.69;5070921;28;20225;-75
2022/01/29 03:36:06;;;;;;;4.20;1.88;;;;;;;1.27;68.01;95102.56;5071097;28;20310;-77
2022/01/29 03:38:33;;;;;;;3.63;2.00;;;;;;;1.24;67.86;95109.22;5071066;28;20223;-75
2022/01/29 03:41:01;;;;;;;1.52;0.95;;;;;;;1.24;67.32;95108.41;5070859;28;20312;-76
2022/01/29 03:43:32;;;;;;;2.72;1.70;;;;;;;1.29;67.54;95117.28;5071231;28;20203;-76
2022/01/29 03:46:00;;;;;;;3.47;1.60;;;;;;;1.25;67.75;95110.84;5070296;28;20198;-76
2022/01/29 03:48:27;;;;;;;3.30;2.08;;;;;;;1.32;67.56;95106.09;5071131;28;20709;-76
2022/01/29 03:50:53;;;;;;;2.20;1.38;;;;;;;1.35;67.92;95116.25;5069987;28;20226;-77
2022/01/29 03:53:20;;;;;;;2.15;1.58;;;;;;;1.30;68.21;95107.41;5070614;28;20539;-75
2022/01/29 03:55:48;;;;;;;3.17;2.40;;;;;;;1.34;68.28;95106.66;5070223;28;20230;-76
2022/01/29 03:58:15;;;;;;;4.95;1.92;;;;;;;1.26;67.92;95109.78;5070767;28;20230;-75
2022/01/29 04:00:42;;;;;;;1.95;1.75;;;;;;;1.30;68.90;95102.88;5070658;28;20303;-77
2022/01/29 04:03:10;;;;;;;2.38;1.50;;;;;;;1.29;68.38;95111.94;5070442;28;20206;-76
2022/01/29 04:05:37;;;;;;;2.78;1.23;;;;;;;1.34;68.97;95103.97;5069645;28;20219;-76
2022/01/29 04:08:12;;;;;;;4.10;2.05;;;;;;;1.27;69.21;95107.91;5069756;28;20207;-76
2022/01/29 04:10:39;;;;;;;3.00;1.75;;;;;;;1.32;69.02;95107.94;5057192;28;20218;-76
2022/01/29 04:13:07;;;;;;;2.33;1.33;;;;;;;1.27;69.00;95108.72;5070319;28;20228;-76
2022/01/29 04:15:33;;;;;;;2.90;1.67;;;;;;;1.26;69.29;95103.63;5070491;28;20202;-78
2022/01/29 04:18:00;;;;;;;3.58;1.90;;;;;;;1.20;69.32;95102.81;5069992;28;20233;-76
2022/01/29 04:20:29;;;;;;;2.33;1.70;;;;;;;1.31;69.21;95099.16;5070027;28;20206;-77
2022/01/29 04:22:55;;;;;;;2.83;1.98;;;;;;;1.23;69.00;95102.28;5070750;28;20242;-75
2022/01/29 04:25:23;;;;;;;3.40;1.92;;;;;;;1.18;69.20;95104.94;5070717;28;20210;-75
2022/01/29 04:27:50;;;;;;;2.05;1.38;;;;;;;1.23;69.20;95102.28;5070420;28;20199;-76
2022/01/29 04:30:27;;;;;;;2.13;1.35;;;;;;;1.18;68.63;95110.28;5072423;28;20231;-79
2022/01/29 04:33:01;;;;;;;3.35;1.60;;;;;;;1.14;68.80;95103.81;5073720;28;20315;-75
2022/01/29 04:35:30;;;;;;;3.70;2.08;;;;;;;1.16;68.79;95112.38;5074319;28;20203;-77
2022/01/29 04:37:57;;;;;;;2.72;1.95;;;;;;;1.19;69.35;95109.22;5074236;28;20219;-76
2022/01/29 04:40:24;;;;;;;2.40;1.02;;;;;;;1.27;68.20;95108.72;5073745;28;20654;-76
2022/01/29 04:42:51;;;;;;;3.03;1.60;;;;;;;1.25;67.84;95108.16;5074178;28;20207;-75
2022/01/29 04:45:18;;;;;;;3.13;1.92;;;;;;;1.19;68.38;95117.22;5073655;28;20203;-75
2022/01/29 04:47:44;;;;;;;2.83;1.70;;;;;;;1.16;68.27;95117.72;5072965;28;20214;-76
2022/01/29 04:50:12;;;;;;;3.53;1.77;;;;;;;1.25;68.21;95118.03;5073796;28;20242;-75
2022/01/29 04:52:40;;;;;;;3.20;2.03;;;;;;;1.20;68.58;95113.50;5073818;28;20226;-75
2022/01/29 04:55:09;;;;;;;3.40;1.70;;;;;;;1.14;68.85;95121.69;5073375;28;20227;-75
2022/01/29 04:57:39;;;;;;;3.97;1.90;;;;;;;1.14;68.97;95114.50;5073651;28;20303;-75
2022/01/29 05:00:08;;;;;;;2.22;1.63;;;;;;;1.15;69.24;95116.09;5059920;28;20390;-75
2022/01/29 05:02:35;;;;;;;3.05;1.50;;;;;;;1.22;69.32;95121.25;5073572;28;20199;-76
2022/01/29 05:05:03;;;;;;;2.97;1.52;;;;;;;1.25;69.18;95126.03;5072960;28;20794;-75
2022/01/29 05:07:30;;;;;;;7.45;2.08;;;;;;;1.21;69.28;95125.78;5073702;28;20213;-75
2022/01/29 05:09:58;;;;;;;2.67;1.58;;;;;;;1.17;69.58;95123.88;5073281;28;20230;-76
2022/01/29 05:12:30;;;;;;;2.67;1.50;;;;;;;1.06;69.85;95120.31;5073599;28;20650;-75
2022/01/29 05:15:09;;;;;;;2.58;1.58;;;;;;;1.05;70.43;95132.06;5073660;28;20199;-75
2022/01/29 05:28:34;;;;;;;3.60;1.50;;;;;;;1.08;71.32;95128.06;5059910;28;20753;-75
2022/01/29 05:31:01;;;;;;;1.88;1.55;;;;;;;1.04;71.60;95130.44;5072898;28;20257;-74
2022/01/29 05:33:28;;;;;;;2.42;1.63;;;;;;;1.03;71.48;95132.31;5059479;28;20716;-74
2022/01/29 05:35:55;;;;;;;3.00;1.80;;;;;;;0.95;71.77;95132.78;5072659;28;20265;-75
2022/01/29 05:38:22;;;;;;;5.07;2.53;;;;;;;0.96;71.85;95138.88;5072896;28;20199;-75
2022/01/29 05:40:50;;;;;;;3.70;2.20;;;;;;;0.96;71.83;95138.88;5072539;28;20203;-74
2022/01/29 05:43:17;;;;;;;6.47;3.55;;;;;;;0.96;71.92;95144.22;5073084;28;20199;-76
2022/01/29 05:45:44;;;;;;;5.05;2.67;;;;;;;0.97;72.39;95156.50;5072984;28;20622;-76
2022/01/29 05:48:11;;;;;;;5.88;2.55;;;;;;;0.95;72.57;95148.78;5072504;28;20763;-74
2022/01/29 05:50:38;;;;;;;8.55;2.13;;;;;;;1.00;73.05;95161.34;5072530;28;20229;-77
2022/01/29 05:53:05;;;;;;;4.63;2.63;;;;;;;1.04;72.17;95162.44;5072403;28;20226;-75
2022/01/29 05:55:31;;;;;;;3.45;2.28;;;;;;;0.97;73.23;95169.84;5072167;28;20223;-75
2022/01/29 05:58:00;;;;;;;4.75;2.10;;;;;;;0.96;72.70;95171.69;5072312;28;20226;-76
2022/01/29 06:00:27;;;;;;;3.80;2.20;;;;;;;1.00;72.91;95180.81;5072286;28;20577;-75
2022/01/29 06:03:01;;;;;;;4.88;2.67;;;;;;;0.98;72.53;95185.59;5071800;28;20249;-75
2022/01/29 06:05:29;;;;;;;4.00;1.80;;;;;;;0.94;72.61;95178.38;5071471;28;20705;-75
2022/01/29 06:07:56;;;;;;;4.15;2.47;;;;;;;0.95;72.63;95185.31;5072344;28;20644;-76
2022/01/29 06:10:23;;;;;;;18.83;2.95;;;;;;;0.87;72.87;95183.09;5071411;28;20231;-75
2022/01/29 06:13:03;;;;;;;5.93;3.40;;;;;;;1.01;73.10;95192.28;5071229;28;20194;-75
2022/01/29 06:15:32;;;;;;;3.80;2.65;;;;;;;0.97;72.63;95193.84;5058875;28;20199;-75
2022/01/29 06:17:59;;;;;;;6.70;2.95;;;;;;;1.09;72.51;95197.19;5072046;28;20227;-77
2022/01/29 06:20:27;;;;;;;7.38;2.83;;;;;;;1.21;72.43;95183.66;5072322;28;20661;-75
2022/01/29 06:22:53;;;;;;;4.93;2.50;;;;;;;1.19;72.71;95186.59;5085801;28;20676;-75
2022/01/29 06:25:20;;;;;;;3.38;2.08;;;;;;;1.30;71.92;95190.13;5072494;28;20198;-77
2022/01/29 06:27:48;;;;;;;5.43;2.83;;;;;;;1.24;71.69;95180.47;5072658;28;20561;-76
2022/01/29 06:30:26;;;;;;;3.90;2.58;;;;;;;1.27;71.54;95191.44;5071364;28;20292;-76
2022/01/29 06:32:53;;;;;;;4.53;2.40;;;;;;;1.33;71.54;95187.75;5072082;28;20326;-75
2022/01/29 06:35:20;;;;;;;3.28;1.90;;;;;;;1.41;71.05;95195.28;5071605;28;20226;-76
2022/01/29 06:37:47;;;;;;;6.88;2.47;;;;;;;1.48;70.74;95192.41;5071234;28;20198;-73
2022/01/29 06:40:14;;;;;;;2.33;1.80;;;;;;;1.45;70.78;95189.44;5071405;28;20210;-76
2022/01/29 06:42:41;;;;;;;3.80;2.40;;;;;;;1.59;70.67;95201.28;5071828;28;20210;-74
2022/01/29 06:45:09;;;;;;;4.80;2.53;;;;;;;1.68;70.31;95197.88;5071871;28;20203;-75
2022/01/29 06:47:38;;;;;;;4.95;2.95;;;;;;;1.70;69.78;95213.63;5071627;28;20222;-76
2022/01/29 06:50:05;;;;;;;4.95;2.78;;;;;;;1.58;70.40;95207.69;5071752;28;20227;-75
2022/01/29 06:52:32;;;;;;;2.35;1.73;;;;;;;1.68;70.56;95216.56;5070065;28;20233;-74
2022/01/29 06:55:04;;;;;;;2.28;1.83;;;;;;;1.83;69.62;95207.84;5070505;28;20234;-75
2022/01/29 06:57:31;;;;;;;4.28;2.22;;;;;;;1.75;69.80;95211.00;5068614;28;20191;-76
2022/01/29 06:59:58;;;;;;;4.18;3.22;;;;;;;1.72;69.70;95214.97;5069789;28;20248;-75
2022/01/29 07:02:25;;;;;;;3.13;1.85;;;;;;;1.79;69.85;95209.41;5069598;28;20218;-77
2022/01/29 07:04:53;;;;;;;3.92;2.40;;;;;;;1.77;70.14;95215.03;5070090;28;20195;-76
2022/01/29 07:07:20;;;;;;;3.15;2.28;;;;;;;1.84;69.85;95227.34;5070053;28;20695;-75
2022/01/29 07:09:47;;;;;;;4.35;2.42;;;;;;;1.93;69.24;95215.91;5069548;28;20566;-76
2022/01/29 07:12:13;;;;;;;4.10;2.88;;;;;;;1.86;69.73;95217.19;5069942;28;20202;-75
2022/01/29 07:14:41;;;;;;;2.88;1.90;;;;;;;1.81;70.17;95238.53;5069604;28;20202;-75
2022/01/29 07:17:12;;;;;;;5.05;2.13;;;;;;;2.00;69.63;95229.84;5069771;28;20231;-74
2022/01/29 07:19:40;;;;;;;4.82;2.72;;;;;;;2.03;69.34;95240.03;5069726;28;20593;-77
2022/01/29 07:22:14;;;;;;;5.25;2.38;;;;;;;2.22;69.33;95236.88;5074209;28;20198;-75
2022/01/29 07:24:41;;;;;;;3.60;2.20;;;;;;;2.16;69.36;95238.75;5069840;28;20191;-76
2022/01/29 07:27:08;;;;;;;2.90;2.28;;;;;;;2.05;69.94;95231.75;5067570;28;20596;-75
2022/01/29 07:29:35;;;;;;;3.22;2.92;;;;;;;1.99;69.98;95232.78;5069796;28;20291;-75
2022/01/29 07:32:04;;;;;;;5.50;3.40;;;;;;;2.12;69.88;95233.13;5070018;28;20223;-76
2022/01/29 07:34:30;;;;;;;4.15;2.20;;;;;;;1.95;69.81;95243.16;5071941;28;20214;-76
2022/01/29 07:36:58;;;;;;;5.38;2.83;;;;;;;1.78;70.41;95237.97;5070071;28;20218;-74
2022/01/29 07:39:28;;;;;;;3.20;2.00;;;;;;;1.88;70.53;95242.59;5069739;28;20248;-76
2022/01/29 07:41:55;;;;;;;7.25;4.03;;;;;;;1.90;70.20;95242.34;5071027;28;20202;-75
2022/01/29 07:44:22;;;;;;;5.13;2.75;;;;;;;2.00;70.01;95250.41;5070862;28;20234;-75
2022/01/29 07:46:49;;;;;;;5.30;2.83;;;;;;;2.10;69.58;95251.25;5081977;28;20207;-74
2022/01/29 07:49:16;;;;;;;4.72;1.90;;;;;;;2.00;70.01;95251.22;5078339;28;20201;-75
2022/01/29 07:51:43;;;;;;;5.90;3.10;;;;;;;1.88;71.13;95249.81;5069829;28;20230;-76
2022/01/29 07:54:10;;;;;;;3.67;2.35;;;;;;;2.08;69.87;95256.06;5073551;28;20291;-74
2022/01/29 07:56:39;;;;;;;3.28;2.72;;;;;;;2.11;69.72;95262.75;5079326;28;20286;-75
2022/01/29 07:59:06;;;;;;;3.97;3.00;;;;;;;1.97;69.86;95262.41;5070278;28;20286;-75
2022/01/29 08:01:32;;;;;;;5.68;3.42;;;;;;;1.99;70.08;95262.97;5070579;28;20231;-75
2022/01/29 08:04:00;;;;;;;6.28;3.75;;;;;;;2.09;69.88;95275.56;5071223;28;20194;-75
2022/01/29 08:06:29;;;;;;;6.22;2.55;;;;;;;2.03;70.00;95274.75;5073391;28;20214;-76
2022/01/29 08:08:56;;;;;;;5.28;2.55;;;;;;;2.01;70.20;95274.19;5072942;28;20291;-75
2022/01/29 08:11:23;;;;;;;4.55;2.55;;;;;;;2.19;69.65;95272.94;5073704;28;20225;-76
2022/01/29 08:13:52;;;;;;;4.60;2.92;;;;;;;2.27;70.23;95267.13;5074210;28;20764;-75
2022/01/29 08:16:18;;;;;;;8.18;4.85;;;;;;;2.43;68.87;95281.38;5074012;28;20230;-75
2022/01/29 08:18:46;;;;;;;6.25;3.13;;;;;;;2.42;69.00;95269.88;5073862;28;20592;-76
2022/01/29 08:21:13;;;;;;;5.45;3.17;;;;;;;2.32;68.94;95275.19;5073939;28;20203;-76
2022/01/29 08:23:40;;;;;;;4.03;2.70;;;;;;;2.37;69.04;95277.06;5073548;28;20203;-77
2022/01/29 08:26:07;;;;;;;9.35;6.18;;;;;;;2.56;68.60;95283.56;5073239;28;20234;-78
2022/01/29 08:28:34;;;;;;;5.45;3.25;;;;;;;2.48;68.97;95281.38;5073852;28;20701;-77
2022/01/29 08:31:02;;;;;;;1.95;1.75;;;;;;;2.54;68.20;95272.34;5074407;28;20235;-76
2022/01/29 08:33:29;;;;;;;4.30;2.25;;;;;;;2.72;67.67;95268.41;5073433;28;20759;-75
2022/01/29 08:35:57;;;;;;;5.10;2.70;;;;;;;2.71;67.68;95272.94;5072751;28;20565;-76
2022/01/29 08:38:24;;;;;;;5.05;3.17;;;;;;;2.79;67.81;95277.78;5073221;28;20716;-75
2022/01/29 08:40:52;;;;;;;4.75;2.70;;;;;;;2.72;67.87;95277.22;5073587;28;20210;-75
2022/01/29 08:43:19;;;;;;;8.50;3.60;;;;;;;2.43;68.52;95284.06;5073763;28;20314;-75
2022/01/29 08:45:46;;;;;;;5.07;2.92;;;;;;;2.61;68.03;95285.44;5073628;28;20557;-75
2022/01/29 08:48:14;;;;;;;5.00;3.35;;;;;;;2.69;68.20;95280.41;5073612;28;20246;-75
2022/01/29 08:50:41;;;;;;;5.60;3.05;;;;;;;2.94;68.15;95287.72;5073337;28;20590;-76
2022/01/29 08:53:10;;;;;;;3.55;2.10;;;;;;;2.68;68.57;95289.50;5073696;28;20714;-76
2022/01/29 08:55:37;;;;;;;3.22;1.65;;;;;;;2.75;68.53;95295.41;5073587;28;20268;-75
2022/01/29 08:58:05;;;;;;;5.70;2.55;;;;;;;2.62;69.05;95290.53;5073063;28;20246;-75
2022/01/29 09:00:33;;;;;;;3.47;2.25;;;;;;;2.72;68.81;95293.28;5073203;28;20689;-76
2022/01/29 09:02:59;;;;;;;9.32;4.75;;;;;;;2.90;68.62;95296.53;5073683;28;20670;-77
2022/01/29 09:05:28;;;;;;;5.70;3.28;;;;;;;2.90;68.72;95297.34;5073059;28;20215;-78
2022/01/29 09:07:55;;;;;;;3.03;2.53;;;;;;;2.78;68.68;95292.22;5073684;28;20240;-75
2022/01/29 09:10:22;;;;;;;5.90;3.05;;;;;;;3.00;67.95;95302.75;5072640;28;20203;-75
2022/01/29 09:12:49;;;;;;;5.10;3.08;;;;;;;2.92;68.20;95302.44;5072302;28;20294;-74
2022/01/29 09:15:16;;;;;;;4.90;2.97;;;;;;;3.08;67.79;95298.72;5071418;28;20215;-73
2022/01/29 09:17:43;;;;;;;4.45;2.85;;;;;;;3.08;67.76;95296.06;5071568;28;20231;-77
2022/01/29 09:20:12;;;;;;;7.97;2.33;;;;;;;3.55;72.20;95293.97;5071687;28;20188;-72
2022/01/29 09:22:40;;;;;;;7.28;2.10;;;;;;;4.19;67.29;95288.06;5079927;28;20211;-73
2022/01/29 09:25:07;;;;;;;3.72;2.78;;;;;;;3.69;65.94;95288.13;5072106;28;20214;-74
2022/01/29 09:27:35;;;;;;;5.57;3.25;;;;;;;3.38;66.71;95288.09;5072196;28;20195;-74
2022/01/29 09:30:02;;;;;;;2.67;2.47;;;;;;;3.30;67.24;95291.28;5072731;28;20207;-75
2022/01/29 09:32:32;;;;;;;5.95;2.60;;;;;;;3.33;66.67;95285.41;5072307;28;20666;-74
2022/01/29 09:34:59;;;;;;;2.92;2.25;;;;;;;3.22;66.85;95283.78;5071748;28;20222;-74
2022/01/29 09:37:26;;;;;;;4.03;2.50;;;;;;;3.07;67.98;95302.47;5072384;28;20195;-75
2022/01/29 09:39:54;;;;;;;12.00;4.60;;;;;;;3.00;67.88;95285.88;5072506;28;20211;-74
2022/01/29 09:42:21;;;;;;;4.40;2.53;;;;;;;3.00;67.55;95296.59;5072353;28;20231;-73
2022/01/29 09:44:51;;;;;;;6.10;3.92;;;;;;;2.83;69.05;95292.25;5085091;27;20214;-75
2022/01/29 09:47:22;;;;;;;7.55;3.65;;;;;;;3.19;68.12;95300.34;5072385;28;20297;-75
2022/01/29 09:49:49;;;;;;;15.02;2.90;;;;;;;2.92;68.53;95283.69;5072353;28;20219;-74
2022/01/29 09:52:16;;;;;;;4.55;2.80;;;;;;;2.93;68.80;95285.31;5072568;28;20226;-74
2022/01/29 09:54:47;;;;;;;7.10;3.40;;;;;;;3.12;68.71;95297.16;5072111;28;20662;-74
2022/01/29 09:57:15;;;;;;;5.50;3.08;;;;;;;3.10;68.73;95294.72;5072757;28;20222;-73
2022/01/29 09:59:42;;;;;;;5.85;3.20;;;;;;;3.43;67.80;95298.78;5071450;28;20207;-75
2022/01/29 10:02:16;;;;;;;10.93;6.75;;;;;;;3.75;67.13;95305.78;5072294;28;20223;-74
2022/01/29 10:04:47;;;;;;;8.60;5.63;;;;;;;3.49;66.28;95295.06;5072008;28;20261;-75
2022/01/29 10:07:15;;;;;;;5.75;2.75;;;;;;;3.34;66.68;95289.69;5072132;28;20739;-73
2022/01/29 10:09:42;;;;;;;4.03;2.92;;;;;;;3.50;65.97;95285.97;5071910;28;20657;-72
2022/01/29 10:12:21;;;;;;;4.25;3.03;;;;;;;3.55;65.58;95285.94;5072241;28;20231;-73
2022/01/29 10:14:50;;;;;;;4.40;2.78;;;;;;;3.69;64.56;95288.13;5071828;28;20191;-72
2022/01/29 10:17:39;;;;;;;4.22;2.60;;;;;;;3.67;65.32;95287.56;5071930;28;20290;-73
2022/01/29 10:20:15;;;;;;;6.35;4.22;;;;;;;3.27;65.64;95289.16;5072354;28;20206;-76
2022/01/29 10:22:45;;;;;;;6.80;3.80;;;;;;;3.05;67.27;95288.56;5071997;28;20230;-75
2022/01/29 10:25:14;;;;;;;4.55;2.88;;;;;;;2.83;67.54;95297.59;5071458;28;20300;-74
2022/01/29 10:28:06;;;;;;;3.30;2.50;;;;;;;2.77;67.61;95298.63;5071000;28;20223;-74
2022/01/29 10:30:36;;;;;;;4.03;2.85;;;;;;;2.56;68.92;95296.16;5071150;28;20673;-72
2022/01/29 10:33:18;;;;;;;9.57;3.88;;;;;;;2.44;70.54;95309.72;5073543;28;20207;-75
2022/01/29 10:35:46;;;;;;;6.45;4.10;;;;;;;2.75;69.57;95294.59;5070810;28;20223;-74
2022/01/29 10:38:13;;;;;;;4.20;2.88;;;;;;;2.82;69.10;95290.63;5071090;28;20420;-73
2022/01/29 10:40:40;;;;;;;7.78;3.28;;;;;;;2.94;69.00;95292.28;5070863;28;20705;-75
2022/01/29 10:43:09;;;;;;;5.47;2.97;;;;;;;3.05;68.77;95296.56;5064538;28;20224;-73
2022/01/29 10:45:37;;;;;;;4.75;3.40;;;;;;;2.94;68.44;95292.28;5076237;28;20227;-73
2022/01/29 10:48:06;;;;;;;2.90;2.30;;;;;;;3.04;68.03;95297.63;5070184;28;20222;-73
2022/01/29 10:50:34;;;;;;;5.35;3.05;;;;;;;3.07;68.31;95307.81;5071030;28;20213;-73
2022/01/29 10:53:25;;;;;;;4.38;3.22;;;;;;;3.15;68.97;95296.59;5070617;28;20329;-71
2022/01/29 10:55:59;;;;;;;5.88;3.20;;;;;;;3.07;68.77;95302.47;5064926;28;20254;-75
2022/01/29 10:58:27;;;;;;;4.60;2.58;;;;;;;3.07;68.65;95299.81;5070267;28;20210;-74
2022/01/29 11:01:14;;;;;;;7.38;3.78;;;;;;;2.96;68.62;95306.19;5060028;28;20253;-77
2022/01/29 11:03:41;;;;;;;6.45;3.80;;;;;;;3.18;68.54;95304.09;5072207;28;20291;-76
2022/01/29 11:06:09;;;;;;;4.07;2.67;;;;;;;3.28;68.07;95298.75;5070554;28;20653;-75
2022/01/29 11:08:39;;;;;;;10.75;6.90;;;;;;;3.05;69.20;95296.56;5070388;28;20202;-73
2022/01/29 11:11:06;;;;;;;7.13;4.13;;;;;;;3.03;69.31;95296.03;5070816;28;22124;-75
2022/01/29 11:13:36;;;;;;;8.80;4.82;;;;;;;2.80;69.62;95282.06;5070936;28;20566;-74
2022/01/29 11:16:04;;;;;;;8.98;4.03;;;;;;;2.83;69.25;95281.53;5070830;28;20238;-80
2022/01/29 11:18:32;;;;;;;9.07;4.38;;;;;;;2.85;70.51;95279.41;5069482;28;20788;-75
2022/01/29 11:21:01;;;;;;;4.50;2.70;;;;;;;2.90;69.82;95280.47;5070408;28;20723;-75
2022/01/29 11:23:30;;;;;;;5.50;3.40;;;;;;;2.72;70.02;95281.78;5083665;28;20226;-74
2022/01/29 11:25:58;;;;;;;8.88;4.32;;;;;;;3.00;70.24;95275.16;5070647;28;20238;-74
2022/01/29 11:28:27;;;;;;;11.60;5.05;;;;;;;3.09;69.89;95289.63;5070408;28;20222;-75
2022/01/29 11:31:25;;;;;;;7.15;4.78;;;;;;;3.06;69.67;95279.47;5069918;28;20210;-75
2022/01/29 11:34:25;;;;;;;9.75;4.53;;;;;;;3.44;68.79;95283.53;5070097;28;20558;-75
2022/01/29 11:37:07;;;;;;;11.52;5.38;;;;;;;3.02;69.39;95284.53;5046749;28;20297;-74
2022/01/29 11:39:36;;;;;;;9.10;4.15;;;;;;;2.74;69.61;95280.41;5069999;28;20217;-78
2022/01/29 11:42:31;;;;;;;6.10;3.72;;;;;;;2.28;71.07;95265.25;5070722;28;20261;-78
2022/01/29 11:45:43;;;;;;;6.85;4.50;;;;;;;2.42;70.96;95277.09;5059684;28;20218;-75
2022/01/29 11:48:58;;;;;;;5.75;3.78;;;;;;;2.65;69.94;95279.31;5067370;28;20244;-75
2022/01/29 11:51:50;;;;;;;11.32;6.35;;;;;;;2.94;69.55;95276.22;5076139;28;20228;-75
2022/01/29 11:54:28;;;;;;;6.97;4.72;;;;;;;2.87;69.51;95273.00;5070483;28;20230;-76
2022/01/29 11:57:08;;;;;;;10.05;4.65;;;;;;;2.91;69.43;95276.72;5071112;28;20195;-75
2022/01/29 11:59:35;;;;;;;6.55;3.42;;;;;;;2.99;69.78;95281.59;5080283;28;20203;-75
2022/01/29 12:02:24;;;;;;;7.60;4.65;;;;;;;3.17;68.50;95265.81;5069404;28;20203;-75